createdAt,value
2023-03-08T00:00:28.477Z,7.79
2023-03-08T00:02:58.494Z,7.81
2023-03-08T00:05:26.800Z,7.79
2023-03-08T00:07:55.804Z,7.78
2023-03-08T00:10:23.996Z,7.79
2023-03-08T00:12:51.843Z,7.76
2023-03-08T00:15:20.833Z,7.77
2023-03-08T00:17:48.956Z,7.77
2023-03-08T00:20:20.395Z,7.76
2023-03-08T00:22:48.293Z,7.75
2023-03-08T00:25:17.019Z,7.74
2023-03-08T00:27:45.877Z,7.73
2023-03-08T00:30:15.273Z,7.71
2023-03-08T00:32:43.459Z,7.72
2023-03-08T00:35:12.149Z,7.71
2023-03-08T00:37:41.331Z,7.72
2023-03-08T00:40:11.300Z,7.71
2023-03-08T00:42:40.569Z,7.70
2023-03-08T00:45:10.239Z,7.69
2023-03-08T00:47:38.521Z,7.75
2023-03-08T00:50:08.532Z,7.73
2023-03-08T00:52:36.612Z,7.71
2023-03-08T00:55:07.272Z,7.70
2023-03-08T00:57:35.923Z,7.67
2023-03-08T01:00:05.966Z,7.66
2023-03-08T01:02:34.062Z,7.65
2023-03-08T01:05:02.748Z,7.65
2023-03-08T01:07:31.656Z,7.65
2023-03-08T01:09:59.686Z,7.65
2023-03-08T01:12:32.380Z,7.66
2023-03-08T01:15:01.000Z,7.65
2023-03-08T01:17:28.868Z,7.64
2023-03-08T01:19:57.868Z,7.64
2023-03-08T01:22:25.749Z,7.63
2023-03-08T01:24:53.935Z,7.62
2023-03-08T01:27:22.530Z,7.63
2023-03-08T01:29:51.994Z,7.62
2023-03-08T01:32:20.138Z,7.61
2023-03-08T01:34:48.963Z,7.60
2023-03-08T01:37:17.145Z,7.60
2023-03-08T01:39:45.254Z,7.60
2023-03-08T01:42:13.902Z,7.59
2023-03-08T01:44:54.923Z,7.60
2023-03-08T01:47:25.540Z,7.60
2023-03-08T01:49:55.645Z,7.60
2023-03-08T01:52:27.739Z,7.58
2023-03-08T01:54:58.404Z,7.55
2023-03-08T01:57:31.627Z,7.57
2023-03-08T02:00:06.575Z,7.56
2023-03-08T02:02:42.796Z,7.55
2023-03-08T02:05:12.564Z,7.52
2023-03-08T02:07:40.650Z,7.51
2023-03-08T02:10:10.754Z,7.51
2023-03-08T02:12:40.037Z,7.49
2023-03-08T02:15:14.221Z,7.51
2023-03-08T02:17:43.789Z,7.49
2023-03-08T02:20:16.697Z,7.52
2023-03-08T02:22:47.163Z,7.53
2023-03-08T02:25:17.060Z,7.48
2023-03-08T02:27:45.716Z,7.47
2023-03-08T02:30:16.275Z,7.45
2023-03-08T02:32:45.192Z,7.42
2023-03-08T02:35:13.833Z,7.41
2023-03-08T02:37:41.737Z,7.40
2023-03-08T02:40:13.316Z,7.41
2023-03-08T02:42:41.652Z,7.38
2023-03-08T02:45:11.077Z,7.37
2023-03-08T02:47:40.196Z,7.36
2023-03-08T02:50:09.319Z,7.35
2023-03-08T02:52:37.629Z,7.34
2023-03-08T02:55:07.126Z,7.32
2023-03-08T02:57:36.719Z,7.32
2023-03-08T03:00:05.318Z,7.30
2023-03-08T03:02:34.760Z,7.27
2023-03-08T03:05:05.300Z,7.25
2023-03-08T03:07:37.974Z,7.23
2023-03-08T03:10:07.495Z,7.18
2023-03-08T03:12:37.212Z,7.07
2023-03-08T03:15:06.387Z,7.14
2023-03-08T03:17:34.905Z,7.10
2023-03-08T03:20:03.723Z,7.05
2023-03-08T03:22:32.317Z,7.01
2023-03-08T03:25:00.564Z,6.98
2023-03-08T03:27:29.623Z,6.96
2023-03-08T03:30:00.442Z,6.94
2023-03-08T03:32:28.848Z,6.91
2023-03-08T03:34:57.141Z,6.87
2023-03-08T03:37:25.986Z,6.85
2023-03-08T03:39:54.246Z,6.82
2023-03-08T03:42:22.415Z,6.81
2023-03-08T03:44:51.291Z,6.79
2023-03-08T03:47:20.953Z,6.79
2023-03-08T03:49:48.826Z,6.80
2023-03-08T03:52:17.857Z,6.76
2023-03-08T03:54:46.431Z,6.71
2023-03-08T03:57:14.406Z,6.68
2023-03-08T03:59:43.142Z,6.65
2023-03-08T04:02:11.456Z,6.64
2023-03-08T04:04:41.136Z,6.64
2023-03-08T04:07:09.644Z,6.64
2023-03-08T04:09:37.830Z,6.62
2023-03-08T04:12:06.821Z,6.59
2023-03-08T04:14:35.321Z,6.56
2023-03-08T04:17:03.702Z,6.53
2023-03-08T04:19:32.203Z,6.52
2023-03-08T04:22:02.981Z,6.52
2023-03-08T04:24:31.477Z,6.46
2023-03-08T04:26:59.300Z,6.46
2023-03-08T04:29:28.065Z,6.45
2023-03-08T04:32:00.348Z,6.45
2023-03-08T04:34:29.517Z,6.40
2023-03-08T04:36:57.487Z,6.40
2023-03-08T04:39:27.072Z,6.41
2023-03-08T04:41:54.936Z,6.46
2023-03-08T04:44:22.813Z,6.45
2023-03-08T04:46:50.871Z,6.42
2023-03-08T04:49:19.759Z,6.41
2023-03-08T04:51:47.995Z,6.39
2023-03-08T04:54:16.135Z,6.39
2023-03-08T04:56:46.456Z,6.40
2023-03-08T04:59:14.645Z,6.39
2023-03-08T05:01:43.899Z,6.40
2023-03-08T05:04:13.638Z,6.41
2023-03-08T05:06:41.813Z,6.41
2023-03-08T05:09:09.795Z,6.41
2023-03-08T05:11:38.756Z,6.42
2023-03-08T05:14:08.766Z,6.44
2023-03-08T05:16:37.234Z,6.41
2023-03-08T05:19:05.864Z,6.41
2023-03-08T05:21:34.042Z,6.39
2023-03-08T05:24:02.170Z,6.38
2023-03-08T05:26:30.394Z,6.40
2023-03-08T05:28:58.598Z,6.39
2023-03-08T05:31:28.611Z,6.41
2023-03-08T05:33:57.431Z,6.41
2023-03-08T05:36:25.290Z,6.38
2023-03-08T05:38:54.926Z,6.40
2023-03-08T05:41:23.559Z,6.36
2023-03-08T05:43:51.536Z,6.37
2023-03-08T05:46:20.854Z,6.37
2023-03-08T05:48:50.636Z,6.35
2023-03-08T05:51:19.080Z,6.41
2023-03-08T05:53:47.684Z,6.37
2023-03-08T05:56:17.664Z,6.35
2023-03-08T05:58:48.026Z,6.31
2023-03-08T06:01:19.458Z,6.30
2023-03-08T06:03:50.606Z,6.28
2023-03-08T06:06:19.716Z,6.28
2023-03-08T06:08:48.712Z,6.27
2023-03-08T06:11:17.220Z,6.26
2023-03-08T06:13:46.031Z,6.26
2023-03-08T06:16:14.426Z,6.24
2023-03-08T06:18:43.545Z,6.25
2023-03-08T06:21:16.227Z,6.27
2023-03-08T06:23:45.652Z,6.25
2023-03-08T06:26:14.843Z,6.23
2023-03-08T06:28:43.832Z,6.22
2023-03-08T06:31:14.265Z,6.22
2023-03-08T06:33:43.446Z,6.21
2023-03-08T06:36:16.740Z,6.24
2023-03-08T06:38:45.814Z,6.22
2023-03-08T06:41:15.506Z,6.20
2023-03-08T06:43:43.399Z,6.26
2023-03-08T06:46:14.565Z,6.25
2023-03-08T06:48:42.680Z,6.20
2023-03-08T06:51:10.795Z,6.20
2023-03-08T06:53:41.481Z,6.19
2023-03-08T06:56:12.750Z,6.19
2023-03-08T06:58:41.474Z,6.20
2023-03-08T07:01:10.274Z,6.20
2023-03-08T07:03:38.851Z,6.22
2023-03-08T07:06:09.767Z,6.23
2023-03-08T07:08:40.658Z,6.24
2023-03-08T07:11:10.265Z,6.25
2023-03-08T07:13:38.690Z,6.32
2023-03-08T07:16:08.566Z,6.29
2023-03-08T07:18:37.820Z,6.29
2023-03-08T07:21:07.176Z,6.25
2023-03-08T07:23:35.265Z,6.25
2023-03-08T07:26:07.904Z,6.27
2023-03-08T07:28:36.332Z,6.25
2023-03-08T07:31:04.426Z,6.22
2023-03-08T07:33:32.813Z,6.23
2023-03-08T07:36:02.693Z,6.22
2023-03-08T07:38:31.123Z,6.25
2023-03-08T07:40:59.388Z,6.26
2023-03-08T07:43:28.636Z,6.27
2023-03-08T07:45:56.841Z,6.28
2023-03-08T07:48:25.467Z,6.28
2023-03-08T07:50:53.523Z,6.28
2023-03-08T07:53:21.553Z,6.28
2023-03-08T07:55:50.233Z,6.29
2023-03-08T07:58:18.296Z,6.30
2023-03-08T08:00:48.241Z,6.31
2023-03-08T08:03:16.925Z,6.30
2023-03-08T08:05:45.358Z,6.32
2023-03-08T08:08:14.191Z,6.31
2023-03-08T08:10:43.101Z,6.33
2023-03-08T08:13:11.400Z,6.35
2023-03-08T08:15:39.701Z,6.34
2023-03-08T08:18:09.511Z,6.37
2023-03-08T08:20:38.091Z,6.39
2023-03-08T08:23:06.797Z,6.39
2023-03-08T08:25:35.710Z,6.41
2023-03-08T08:28:03.819Z,6.43
2023-03-08T08:30:32.065Z,6.46
2023-03-08T08:33:02.239Z,6.47
2023-03-08T08:35:42.780Z,6.50
2023-03-08T08:38:12.618Z,6.48
2023-03-08T08:40:40.706Z,6.51
2023-03-08T08:43:09.308Z,6.51
2023-03-08T08:45:38.167Z,6.51
2023-03-08T08:48:06.737Z,6.54
2023-03-08T08:50:36.702Z,6.57
2023-03-08T08:53:05.812Z,6.57
2023-03-08T08:55:34.220Z,6.61
2023-03-08T08:58:03.092Z,6.62
2023-03-08T09:00:32.160Z,6.64
2023-03-08T09:03:00.503Z,6.66
2023-03-08T09:05:29.195Z,6.66
2023-03-08T09:08:00.382Z,6.71
2023-03-08T09:10:29.801Z,6.72
2023-03-08T09:12:59.198Z,6.73
2023-03-08T09:15:28.614Z,6.75
2023-03-08T09:17:56.870Z,6.74
2023-03-08T09:20:25.118Z,6.80
2023-03-08T09:22:53.453Z,6.76
2023-03-08T09:25:24.304Z,6.82
2023-03-08T09:27:53.095Z,6.82
2023-03-08T09:30:21.384Z,6.79
2023-03-08T09:32:49.502Z,6.83
2023-03-08T09:35:18.060Z,6.83
2023-03-08T09:37:46.033Z,6.82
2023-03-08T09:40:21.536Z,6.78
2023-03-08T09:42:51.211Z,6.79
2023-03-08T09:45:25.920Z,6.84
2023-03-08T09:48:05.140Z,6.81
2023-03-08T09:50:39.289Z,6.82
2023-03-08T09:53:17.745Z,6.84
2023-03-08T09:55:49.900Z,6.84
2023-03-08T09:58:33.077Z,6.86
2023-03-08T10:01:08.342Z,6.87
2023-03-08T10:04:14.424Z,6.91
2023-03-08T10:06:49.707Z,6.91
2023-03-08T10:09:29.668Z,6.94
2023-03-08T10:12:06.863Z,6.98
2023-03-08T10:14:47.096Z,7.01
2023-03-08T10:17:18.983Z,7.03
2023-03-08T10:19:54.034Z,7.06
2023-03-08T10:22:28.849Z,7.08
2023-03-08T10:25:01.379Z,7.12
2023-03-08T10:27:33.870Z,7.12
2023-03-08T10:30:13.517Z,7.13
2023-03-08T10:32:44.051Z,7.18
2023-03-08T10:35:12.510Z,7.20
2023-03-08T10:37:40.724Z,7.16
2023-03-08T10:40:11.399Z,7.16
2023-03-08T10:42:39.526Z,7.16
2023-03-08T10:45:16.504Z,7.16
2023-03-08T10:47:55.847Z,7.19
2023-03-08T10:50:26.281Z,7.21
2023-03-08T10:52:54.554Z,7.23
2023-03-08T10:55:24.874Z,7.27
2023-03-08T10:57:56.330Z,7.31
2023-03-08T11:00:34.740Z,7.30
2023-03-08T11:03:22.248Z,7.35
2023-03-08T11:05:55.167Z,7.32
2023-03-08T11:08:27.334Z,7.35
2023-03-08T11:11:10.603Z,7.35
2023-03-08T11:13:42.483Z,7.32
2023-03-08T11:16:26.281Z,7.35
2023-03-08T11:19:08.751Z,7.36
2023-03-08T11:21:48.818Z,7.37
2023-03-08T11:24:32.169Z,7.38
2023-03-08T11:27:19.647Z,7.40
2023-03-08T11:30:01.980Z,7.43
2023-03-08T11:32:45.233Z,7.42
2023-03-08T11:35:24.897Z,7.44
2023-03-08T11:38:01.070Z,7.44
2023-03-08T11:40:33.445Z,7.44
2023-03-08T11:43:28.637Z,7.42
2023-03-08T11:46:03.521Z,7.42
2023-03-08T11:48:47.513Z,7.43
2023-03-08T11:51:24.333Z,7.41
2023-03-08T11:54:03.804Z,7.41
2023-03-08T11:56:47.690Z,7.38
2023-03-08T11:59:24.985Z,7.41
2023-03-08T12:01:57.502Z,7.42
2023-03-08T12:04:33.295Z,7.39
2023-03-08T12:07:03.445Z,7.37
2023-03-08T12:09:37.286Z,7.39
2023-03-08T12:12:13.158Z,7.40
2023-03-08T12:14:50.562Z,7.40
2023-03-08T12:17:22.144Z,7.39
2023-03-08T12:19:52.264Z,7.42
2023-03-08T12:22:31.520Z,7.42
2023-03-08T12:25:08.262Z,7.42
2023-03-08T12:27:44.410Z,7.45
2023-03-08T12:30:25.018Z,7.47
2023-03-08T12:32:56.407Z,7.46
2023-03-08T12:35:33.900Z,7.48
2023-03-08T12:38:04.809Z,7.49
2023-03-08T12:40:39.854Z,7.51
2023-03-08T12:43:11.913Z,7.55
2023-03-08T12:45:40.719Z,7.53
2023-03-08T12:48:21.506Z,7.58
2023-03-08T12:51:00.721Z,7.58
2023-03-08T12:53:35.923Z,7.61
2023-03-08T12:56:08.087Z,7.62
2023-03-08T12:58:39.627Z,7.63
2023-03-08T13:01:23.835Z,7.62
2023-03-08T13:03:52.088Z,7.60
2023-03-08T13:07:05.233Z,7.50
2023-03-08T13:09:37.999Z,7.49
2023-03-08T13:12:21.779Z,7.44
2023-03-08T13:15:03.434Z,7.46
2023-03-08T13:17:36.462Z,7.45
2023-03-08T13:20:14.105Z,7.44
2023-03-08T13:22:54.898Z,7.43
2023-03-08T13:25:42.072Z,7.44
2023-03-08T13:28:11.832Z,7.29
2023-03-08T13:30:47.703Z,7.33
2023-03-08T13:33:19.043Z,7.32
2023-03-08T13:35:57.369Z,7.35
2023-03-08T13:38:30.679Z,7.36
2023-03-08T13:41:00.682Z,7.37
2023-03-08T13:43:29.621Z,7.38
2023-03-08T13:46:00.955Z,7.40
2023-03-08T13:48:31.944Z,7.41
2023-03-08T13:51:00.529Z,7.41
2023-03-08T13:53:32.904Z,7.44
2023-03-08T13:56:04.136Z,7.46
2023-03-08T13:58:34.894Z,7.45
2023-03-08T14:01:05.437Z,7.44
2023-03-08T14:03:33.900Z,7.39
2023-03-08T14:06:02.219Z,7.45
2023-03-08T14:08:31.357Z,7.47
2023-03-08T14:11:02.451Z,7.43
2023-03-08T14:13:33.226Z,7.45
2023-03-08T14:16:04.157Z,7.47
2023-03-08T14:18:35.664Z,7.48
2023-03-08T14:21:07.424Z,7.48
2023-03-08T14:23:41.185Z,7.48
2023-03-08T14:26:25.542Z,7.47
2023-03-08T14:29:12.108Z,7.49
2023-03-08T14:31:40.934Z,7.48
2023-03-08T14:34:20.480Z,7.43
2023-03-08T14:36:56.036Z,7.50
2023-03-08T14:39:27.807Z,7.51
2023-03-08T14:41:56.640Z,7.44
2023-03-08T14:44:27.771Z,7.48
2023-03-08T14:46:59.354Z,7.53
2023-03-08T14:49:29.103Z,7.53
2023-03-08T14:51:57.218Z,7.56
2023-03-08T14:54:33.730Z,7.55
2023-03-08T14:57:14.126Z,7.59
2023-03-08T14:59:42.513Z,7.49
2023-03-08T15:02:13.323Z,7.61
2023-03-08T15:04:42.096Z,7.61
2023-03-08T15:07:19.146Z,7.64
2023-03-08T15:09:50.503Z,7.59
2023-03-08T15:12:18.248Z,7.62
2023-03-08T15:14:46.003Z,7.62
2023-03-08T15:17:14.216Z,7.63
2023-03-08T15:19:41.854Z,7.63
2023-03-08T15:22:13.780Z,7.62
2023-03-08T15:24:42.163Z,7.63
2023-03-08T15:27:15.591Z,7.66
2023-03-08T15:29:43.866Z,7.63
2023-03-08T15:32:11.727Z,7.64
2023-03-08T15:34:40.775Z,7.64
2023-03-08T15:37:15.202Z,7.66
2023-03-08T15:39:42.848Z,7.64
2023-03-08T15:42:12.398Z,7.58
2023-03-08T15:44:40.967Z,7.60
2023-03-08T15:47:10.677Z,7.61
2023-03-08T15:49:38.161Z,7.49
2023-03-08T15:52:08.615Z,7.50
2023-03-08T15:54:36.461Z,7.51
2023-03-08T15:57:04.251Z,7.48
2023-03-08T15:59:36.739Z,7.47
2023-03-08T16:02:04.670Z,7.44
2023-03-08T16:04:32.447Z,7.42
2023-03-08T16:07:00.506Z,7.44
2023-03-08T16:09:28.188Z,7.45
2023-03-08T16:11:55.838Z,7.46
2023-03-08T16:14:24.492Z,7.48
2023-03-08T16:16:53.534Z,7.51
2023-03-08T16:19:21.268Z,7.53
2023-03-08T16:21:51.152Z,7.55
2023-03-08T16:24:18.848Z,7.59
2023-03-08T16:26:46.498Z,7.60
2023-03-08T16:29:14.863Z,7.63
2023-03-08T16:31:42.665Z,7.63
2023-03-08T16:34:12.681Z,7.65
2023-03-08T16:36:40.845Z,7.56
2023-03-08T16:39:08.973Z,7.55
2023-03-08T16:41:36.969Z,7.52
2023-03-08T16:44:05.463Z,7.53
2023-03-08T16:46:33.584Z,7.54
2023-03-08T16:49:01.271Z,7.53
2023-03-08T16:51:32.090Z,7.55
2023-03-08T16:53:59.791Z,7.50
2023-03-08T16:56:29.278Z,7.43
2023-03-08T16:58:58.897Z,7.47
2023-03-08T17:01:27.056Z,7.46
2023-03-08T17:03:56.096Z,7.50
2023-03-08T17:06:27.671Z,7.52
2023-03-08T17:08:57.828Z,7.52
2023-03-08T17:11:28.831Z,7.55
2023-03-08T17:13:58.847Z,7.54
2023-03-08T17:16:28.315Z,7.55
2023-03-08T17:18:56.817Z,7.56
2023-03-08T17:21:24.535Z,7.55
2023-03-08T17:23:52.655Z,7.52
2023-03-08T17:26:24.882Z,7.58
2023-03-08T17:28:53.903Z,7.56
2023-03-08T17:31:23.800Z,7.56
2023-03-08T17:33:52.773Z,7.56
2023-03-08T17:36:20.796Z,7.57
2023-03-08T17:38:49.185Z,7.57
2023-03-08T17:41:18.064Z,7.57
2023-03-08T17:43:47.089Z,7.57
2023-03-08T17:46:17.272Z,7.56
2023-03-08T17:48:45.557Z,7.56
2023-03-08T17:51:15.323Z,7.56
2023-03-08T17:53:45.683Z,7.53
2023-03-08T17:56:15.067Z,7.52
2023-03-08T17:58:43.057Z,7.51
2023-03-08T18:01:14.713Z,7.53
2023-03-08T18:03:42.621Z,7.51
2023-03-08T18:06:19.226Z,7.53
2023-03-08T18:08:46.882Z,7.50
2023-03-08T18:11:14.600Z,7.49
2023-03-08T18:13:42.836Z,7.50
2023-03-08T18:16:12.094Z,7.49
2023-03-08T18:18:39.909Z,7.46
2023-03-08T18:21:13.788Z,7.47
2023-03-08T18:23:43.240Z,7.43
2023-03-08T18:26:11.924Z,7.46
2023-03-08T18:28:39.797Z,7.40
2023-03-08T18:31:08.976Z,7.45
2023-03-08T18:33:38.629Z,7.45
2023-03-08T18:36:06.289Z,7.48
2023-03-08T18:38:34.172Z,7.46
2023-03-08T18:41:11.675Z,7.46
2023-03-08T18:43:40.840Z,7.45
2023-03-08T18:46:10.309Z,7.46
2023-03-08T18:48:40.600Z,7.45
2023-03-08T18:51:08.377Z,7.45
2023-03-08T18:53:37.046Z,7.40
2023-03-08T18:56:05.990Z,7.45
2023-03-08T18:58:34.025Z,7.46
2023-03-08T19:01:02.948Z,7.40
2023-03-08T19:03:31.431Z,7.48
2023-03-08T19:06:02.863Z,7.48
2023-03-08T19:08:30.574Z,7.47
2023-03-08T19:10:58.285Z,7.47
2023-03-08T19:13:26.056Z,7.47
2023-03-08T19:15:53.716Z,7.50
2023-03-08T19:18:23.479Z,7.52
2023-03-08T19:20:51.239Z,7.53
2023-03-08T19:23:20.353Z,7.55
2023-03-08T19:26:02.248Z,7.55
2023-03-08T19:28:30.178Z,7.57
2023-03-08T19:30:57.860Z,7.57
2023-03-08T19:33:30.760Z,7.56
2023-03-08T19:35:58.874Z,7.58
2023-03-08T19:38:28.006Z,7.58
2023-03-08T19:40:55.823Z,7.57
2023-03-08T19:43:23.483Z,7.57
2023-03-08T19:45:52.119Z,7.55
2023-03-08T19:48:19.802Z,7.57
2023-03-08T19:50:47.808Z,7.58
2023-03-08T19:53:16.071Z,7.58
2023-03-08T19:55:51.086Z,7.59
2023-03-08T19:58:19.537Z,7.53
2023-03-08T20:00:47.810Z,7.59
2023-03-08T20:03:17.709Z,7.61
2023-03-08T20:05:48.398Z,7.61
2023-03-08T20:08:16.114Z,7.60
2023-03-08T20:10:43.783Z,7.61
2023-03-08T20:13:13.605Z,7.61
2023-03-08T20:15:41.088Z,7.66
2023-03-08T20:18:09.017Z,7.65
2023-03-08T20:20:37.198Z,7.64
2023-03-08T20:23:05.017Z,7.62
2023-03-08T20:25:34.649Z,7.62
2023-03-08T20:28:02.600Z,7.67
2023-03-08T20:30:31.718Z,7.67
2023-03-08T20:32:59.400Z,7.65
2023-03-08T20:35:27.426Z,7.65
2023-03-08T20:37:55.148Z,7.65
2023-03-08T20:40:22.981Z,7.63
2023-03-08T20:42:51.407Z,7.64
2023-03-08T20:45:23.697Z,7.64
2023-03-08T20:47:55.127Z,7.65
2023-03-08T20:50:23.113Z,7.64
2023-03-08T20:52:50.878Z,7.65
2023-03-08T20:55:19.448Z,7.65
2023-03-08T20:57:47.110Z,7.66
2023-03-08T21:00:15.663Z,7.66
2023-03-08T21:02:43.800Z,7.65
2023-03-08T21:05:13.085Z,7.66
2023-03-08T21:07:40.746Z,7.66
2023-03-08T21:10:09.693Z,7.67
2023-03-08T21:12:39.042Z,7.66
2023-03-08T21:15:08.068Z,7.68
2023-03-08T21:17:40.331Z,7.69
2023-03-08T21:20:10.773Z,7.70
2023-03-08T21:22:40.001Z,7.70
2023-03-08T21:25:08.376Z,7.70
2023-03-08T21:27:36.912Z,7.71
2023-03-08T21:30:07.205Z,7.72
2023-03-08T21:32:35.168Z,7.71
2023-03-08T21:35:03.131Z,7.70
2023-03-08T21:37:30.873Z,7.71
2023-03-08T21:40:00.182Z,7.70
2023-03-08T21:42:27.863Z,7.70
2023-03-08T21:44:55.517Z,7.72
2023-03-08T21:47:23.226Z,7.72
2023-03-08T21:49:50.890Z,7.70
2023-03-08T21:52:18.547Z,7.73
2023-03-08T21:54:46.413Z,7.72
2023-03-08T21:57:15.416Z,7.70
2023-03-08T21:59:43.054Z,7.66
2023-03-08T22:02:12.167Z,7.68
2023-03-08T22:04:40.393Z,7.64
2023-03-08T22:07:08.084Z,7.69
2023-03-08T22:09:35.948Z,7.69
2023-03-08T22:12:03.877Z,7.68
2023-03-08T22:14:33.376Z,7.70
2023-03-08T22:17:01.389Z,7.67
2023-03-08T22:19:29.020Z,7.69
2023-03-08T22:21:58.418Z,7.71
2023-03-08T22:24:27.391Z,7.71
2023-03-08T22:26:55.143Z,7.72
2023-03-08T22:29:22.792Z,7.73
2023-03-08T22:31:52.231Z,7.73
2023-03-08T22:34:19.975Z,7.73
2023-03-08T22:36:47.656Z,7.73
2023-03-08T22:39:15.940Z,7.72
2023-03-08T22:41:43.598Z,7.72
2023-03-08T22:44:14.083Z,7.72
2023-03-08T22:46:42.359Z,7.67
2023-03-08T22:49:12.444Z,7.62
2023-03-08T22:51:41.341Z,7.47
2023-03-08T22:54:10.153Z,7.51
2023-03-08T22:56:37.821Z,7.52
2023-03-08T22:59:05.487Z,7.51
2023-03-08T23:01:34.071Z,7.40
2023-03-08T23:04:04.100Z,7.38
2023-03-08T23:06:34.903Z,7.39
2023-03-08T23:09:06.101Z,7.20
2023-03-08T23:11:34.675Z,7.31
2023-03-08T23:14:03.081Z,7.36
2023-03-08T23:16:31.033Z,7.32
2023-03-08T23:18:59.439Z,7.37
2023-03-08T23:21:30.250Z,7.39
2023-03-08T23:23:59.527Z,7.44
2023-03-08T23:26:28.623Z,7.48
2023-03-08T23:28:58.347Z,7.50
2023-03-08T23:31:27.167Z,7.57
2023-03-08T23:33:55.658Z,7.61
2023-03-08T23:36:25.787Z,7.61
2023-03-08T23:38:54.139Z,7.62
2023-03-08T23:41:23.189Z,7.65
2023-03-08T23:43:55.619Z,7.68
2023-03-08T23:46:23.622Z,7.66
2023-03-08T23:48:55.756Z,7.70
2023-03-08T23:51:24.837Z,7.73
2023-03-08T23:53:54.724Z,7.73
2023-03-08T23:56:27.882Z,7.77
2023-03-08T23:58:56.150Z,7.77
